Time;durP1;ratioP1;P1;durP2;ratioP2;P2;SDS_P1;SDS_P2;PMS_P1;PMS_P2;Temp;Humidity;BMP_temperature;BMP_pressure;BME280_temperature;BME280_humidity;BME280_pressure;Samples;Min_cycle;Max_cycle;Signal;HPM_P1;HPM_P2
2022/01/09 00:00:31;;;;;;;;;;;1.80;99.90;;;;;;4976876;28;19926;-84
2022/01/09 00:02:58;;;;;;;;;;;1.90;99.90;;;;;;4967761;28;19922;-85
2022/01/09 00:05:25;;;;;;;;;;;1.90;99.90;;;;;;4967270;28;19944;-86
2022/01/09 00:07:53;;;;;;;;;;;1.90;99.90;;;;;;4995126;28;19921;-85
2022/01/09 00:10:20;;;;;;;;;;;1.90;99.90;;;;;;4981209;28;20363;-85
2022/01/09 00:12:48;;;;;;;;;;;1.90;99.90;;;;;;4962825;28;20389;-85
2022/01/09 00:15:15;;;;;;;;;;;1.90;99.90;;;;;;4951507;28;19926;-85
2022/01/09 00:17:42;;;;;;;;;;;1.90;99.90;;;;;;4956553;28;19928;-85
2022/01/09 00:20:10;;;;;;;;;;;1.90;99.90;;;;;;4982878;28;20566;-84
2022/01/09 00:22:51;;;;;;;;;;;1.90;99.90;;;;;;4968401;28;19937;-85
2022/01/09 00:25:19;;;;;;;;;;;1.90;99.90;;;;;;4981642;28;19944;-85
2022/01/09 00:27:46;;;;;;;;;;;1.90;99.90;;;;;;4941419;28;20204;-84
2022/01/09 00:30:15;;;;;;;;;;;1.90;99.90;;;;;;4968900;28;20476;-85
2022/01/09 00:32:42;;;;;;;;;;;1.90;99.90;;;;;;4978368;28;19944;-84
2022/01/09 00:35:10;;;;;;;;;;;1.90;99.90;;;;;;4970217;28;20041;-85
2022/01/09 00:37:37;;;;;;;;;;;1.90;99.90;;;;;;4981447;28;19953;-85
2022/01/09 00:40:05;;;;;;;;;;;1.90;99.90;;;;;;4969851;28;20004;-84
2022/01/09 00:42:32;;;;;;;;;;;1.90;99.90;;;;;;4961856;28;19922;-84
2022/01/09 00:45:00;;;;;;;;;;;1.90;99.90;;;;;;4966813;28;20016;-84
2022/01/09 00:47:27;;;;;;;;;;;1.90;99.90;;;;;;4966416;28;19956;-85
2022/01/09 00:49:54;;;;;;;;;;;1.90;99.90;;;;;;4984516;28;19933;-85
2022/01/09 00:52:21;;;;;;;;;;;1.90;99.90;;;;;;4965283;28;19980;-84
2022/01/09 00:54:48;;;;;;;;;;;1.90;99.90;;;;;;4953780;28;19952;-84
2022/01/09 00:57:15;;;;;;;;;;;1.90;99.90;;;;;;4964446;28;19960;-84
2022/01/09 00:59:41;;;;;;;;;;;1.90;99.90;;;;;;4975936;28;19926;-84
2022/01/09 01:02:08;;;;;;;;;;;1.90;99.90;;;;;;4982000;28;20041;-84
2022/01/09 01:04:37;;;;;;;;;;;2.00;99.90;;;;;;4967333;28;19976;-84
2022/01/09 01:07:04;;;;;;;;;;;2.00;99.90;;;;;;4961853;28;20328;-84
2022/01/09 01:09:31;;;;;;;;;;;2.00;99.90;;;;;;4965097;28;20580;-84
2022/01/09 01:11:58;;;;;;;;;;;1.90;99.90;;;;;;4963714;28;19934;-84
2022/01/09 01:14:27;;;;;;;;;;;1.90;99.90;;;;;;4961578;28;19926;-84
2022/01/09 01:16:55;;;;;;;;;;;1.80;99.90;;;;;;4967280;28;19928;-84
2022/01/09 01:19:22;;;;;;;;;;;1.80;99.90;;;;;;4964614;28;20022;-84
2022/01/09 01:21:49;;;;;;;;;;;1.70;99.90;;;;;;4964882;28;20326;-84
2022/01/09 01:24:17;;;;;;;;;;;1.70;99.90;;;;;;4963178;28;20021;-84
2022/01/09 01:26:44;;;;;;;;;;;1.70;99.90;;;;;;4981453;28;20362;-84
2022/01/09 01:29:11;;;;;;;;;;;1.70;99.90;;;;;;4965533;28;19965;-84
2022/01/09 01:31:38;;;;;;;;;;;1.70;99.90;;;;;;4980408;28;21385;-84
2022/01/09 01:34:06;;;;;;;;;;;1.70;99.90;;;;;;4967932;28;19922;-84
2022/01/09 01:36:32;;;;;;;;;;;1.70;99.90;;;;;;4979562;28;19922;-85
2022/01/09 01:38:59;;;;;;;;;;;1.70;99.90;;;;;;4981117;28;19926;-84
2022/01/09 01:41:26;;;;;;;;;;;1.70;99.90;;;;;;4967013;28;19922;-84
2022/01/09 01:43:53;;;;;;;;;;;1.70;99.90;;;;;;4965056;28;20031;-84
2022/01/09 01:46:20;;;;;;;;;;;1.70;99.90;;;;;;4964129;28;20509;-84
2022/01/09 01:48:49;;;;;;;;;;;1.80;99.90;;;;;;3597462;28;10020012;-84
2022/01/09 01:51:18;;;;;;;;;;;1.80;99.90;;;;;;2395095;28;10001964;-84
2022/01/09 01:53:47;;;;;;;;;;;1.80;99.90;;;;;;4964726;28;19929;-84
2022/01/09 01:56:19;;;;;;;;;;;1.80;99.90;;;;;;4964830;28;19929;-84
2022/01/09 01:58:47;;;;;;;;;;;1.80;99.90;;;;;;4965320;28;19949;-84
2022/01/09 02:01:14;;;;;;;;;;;1.70;99.90;;;;;;4965750;28;19933;-85
2022/01/09 02:03:41;;;;;;;;;;;1.70;99.90;;;;;;4965737;28;19967;-84
2022/01/09 02:06:08;;;;;;;;;;;1.60;99.90;;;;;;4968952;28;19981;-84
2022/01/09 02:08:35;;;;;;;;;;;1.60;99.90;;;;;;4962552;28;19962;-84
2022/01/09 02:11:02;;;;;;;;;;;1.60;99.90;;;;;;4968505;28;19933;-84
2022/01/09 02:13:29;;;;;;;;;;;1.60;99.90;;;;;;4984368;28;19921;-85
2022/01/09 02:15:59;;;;;;;;;;;1.60;99.90;;;;;;4969393;28;20036;-85
2022/01/09 02:18:26;;;;;;;;;;;1.60;99.90;;;;;;4970790;28;19926;-85
2022/01/09 02:20:53;;;;;;;;;;;1.60;99.90;;;;;;4969146;28;19922;-85
2022/01/09 02:23:20;;;;;;;;;;;1.70;99.90;;;;;;4970952;28;19929;-85
2022/01/09 02:25:47;;;;;;;;;;;1.60;99.90;;;;;;4968051;28;20367;-85
2022/01/09 02:28:15;;;;;;;;;;;1.60;99.90;;;;;;4952708;28;20356;-85
2022/01/09 02:30:42;;;;;;;;;;;1.60;99.90;;;;;;4966884;28;20327;-85
2022/01/09 02:33:10;;;;;;;;;;;1.60;99.90;;;;;;4954145;28;19926;-85
2022/01/09 02:35:37;;;;;;;;;;;1.70;99.90;;;;;;4968474;28;19930;-85
2022/01/09 02:38:05;;;;;;;;;;;1.60;99.90;;;;;;4959923;28;19930;-85
2022/01/09 02:40:32;;;;;;;;;;;1.60;99.90;;;;;;4967801;28;19926;-85
2022/01/09 02:42:59;;;;;;;;;;;1.60;99.90;;;;;;4981018;28;19941;-85
2022/01/09 02:45:27;;;;;;;;;;;1.60;99.90;;;;;;4966427;28;20233;-85
2022/01/09 02:47:56;;;;;;;;;;;1.60;99.90;;;;;;4968397;28;20029;-85
2022/01/09 02:52:54;;;;;;;;;;;1.60;99.90;;;;;;4963388;28;20360;-85
2022/01/09 02:55:21;;;;;;;;;;;1.60;99.90;;;;;;4985753;28;19926;-84
2022/01/09 02:57:50;;;;;;;;;;;1.60;99.90;;;;;;4969871;28;20010;-84
2022/01/09 03:00:19;;;;;;;;;;;1.70;99.90;;;;;;4969952;28;20029;-84
2022/01/09 03:02:46;;;;;;;;;;;1.70;99.90;;;;;;4957549;28;19931;-84
2022/01/09 03:05:13;;;;;;;;;;;1.70;99.90;;;;;;4973109;28;20006;-84
2022/01/09 03:07:41;;;;;;;;;;;1.70;99.90;;;;;;4961931;28;19922;-84
2022/01/09 03:10:08;;;;;;;;;;;1.70;99.90;;;;;;4948464;28;19926;-84
2022/01/09 03:12:36;;;;;;;;;;;1.70;99.90;;;;;;4960724;28;19950;-84
2022/01/09 03:15:04;;;;;;;;;;;1.70;99.90;;;;;;4946232;28;20269;-84
2022/01/09 03:17:31;;;;;;;;;;;1.60;99.90;;;;;;4969089;28;19930;-84
2022/01/09 03:19:58;;;;;;;;;;;1.60;99.90;;;;;;4966410;28;20508;-84
2022/01/09 03:22:25;;;;;;;;;;;1.60;99.90;;;;;;4981107;28;20447;-84
2022/01/09 03:24:52;;;;;;;;;;;1.70;99.90;;;;;;4963466;28;19933;-84
2022/01/09 03:27:19;;;;;;;;;;;1.70;99.90;;;;;;4967793;28;19968;-83
2022/01/09 03:29:46;;;;;;;;;;;1.60;99.90;;;;;;4958889;28;19926;-83
2022/01/09 03:32:12;;;;;;;;;;;1.60;99.90;;;;;;4968517;28;19926;-83
2022/01/09 03:34:39;;;;;;;;;;;1.60;99.90;;;;;;4963433;28;19933;-83
2022/01/09 03:37:07;;;;;;;;;;;1.60;99.90;;;;;;4969069;28;20302;-83
2022/01/09 03:39:34;;;;;;;;;;;1.50;99.90;;;;;;4978331;28;20352;-82
2022/01/09 03:42:01;;;;;;;;;;;1.50;99.90;;;;;;4968958;28;19954;-82
2022/01/09 03:44:28;;;;;;;;;;;1.50;99.90;;;;;;4965496;28;19965;-82
2022/01/09 03:46:55;;;;;;;;;;;1.50;99.90;;;;;;4921410;28;19945;-81
2022/01/09 03:49:22;;;;;;;;;;;1.40;99.90;;;;;;653447;28;10002442;-81
2022/01/09 03:51:54;;;;;;;;;;;1.40;99.90;;;;;;4968352;28;19930;-81
2022/01/09 03:54:22;;;;;;;;;;;1.40;99.90;;;;;;4969207;28;19984;-81
2022/01/09 03:56:49;;;;;;;;;;;1.40;99.90;;;;;;4968316;28;20383;-81
2022/01/09 03:59:16;;;;;;;;;;;1.30;99.90;;;;;;4968054;28;20340;-82
2022/01/09 04:01:44;;;;;;;;;;;1.30;99.90;;;;;;4969074;28;19980;-82
2022/01/09 04:04:11;;;;;;;;;;;1.30;99.90;;;;;;4967372;28;20005;-82
2022/01/09 04:06:45;;;;;;;;;;;1.20;99.90;;;;;;4982391;28;19930;-82
2022/01/09 04:09:19;;;;;;;;;;;1.20;99.90;;;;;;4968304;28;20356;-82
2022/01/09 04:11:49;;;;;;;;;;;1.20;99.90;;;;;;4966170;28;19926;-82
2022/01/09 04:14:16;;;;;;;;;;;1.20;99.90;;;;;;4956384;28;20056;-82
2022/01/09 04:16:43;;;;;;;;;;;1.20;99.90;;;;;;4948109;28;19926;-82
2022/01/09 04:19:13;;;;;;;;;;;1.20;99.90;;;;;;4949167;28;19930;-82
2022/01/09 04:21:41;;;;;;;;;;;1.10;99.90;;;;;;4963860;28;19930;-82
2022/01/09 04:24:08;;;;;;;;;;;1.20;99.90;;;;;;4966370;28;20032;-81
2022/01/09 04:26:36;;;;;;;;;;;1.20;99.90;;;;;;4966146;28;19926;-81
2022/01/09 04:29:03;;;;;;;;;;;1.20;99.90;;;;;;4977908;28;19988;-81
2022/01/09 04:31:30;;;;;;;;;;;1.20;99.90;;;;;;4974940;28;19922;-81
2022/01/09 04:33:57;;;;;;;;;;;1.20;99.90;;;;;;4961077;28;19985;-81
2022/01/09 04:36:24;;;;;;;;;;;1.20;99.90;;;;;;4963793;28;20390;-81
2022/01/09 04:38:51;;;;;;;;;;;1.30;99.90;;;;;;4966854;28;19985;-82
2022/01/09 04:41:18;;;;;;;;;;;1.30;99.90;;;;;;4978030;28;19930;-82
2022/01/09 04:43:46;;;;;;;;;;;1.40;99.90;;;;;;4968775;28;19956;-82
2022/01/09 04:46:19;;;;;;;;;;;1.40;99.90;;;;;;4967532;28;19961;-82
2022/01/09 04:48:48;;;;;;;;;;;1.40;99.90;;;;;;4978552;28;19933;-82
2022/01/09 04:51:15;;;;;;;;;;;1.40;99.90;;;;;;4978090;28;20407;-82
2022/01/09 04:53:42;;;;;;;;;;;1.40;99.90;;;;;;4982697;28;19922;-81
2022/01/09 04:56:09;;;;;;;;;;;1.30;99.90;;;;;;4966985;28;19929;-81
2022/01/09 04:58:36;;;;;;;;;;;1.30;99.90;;;;;;4966766;28;20000;-81
2022/01/09 05:01:02;;;;;;;;;;;1.30;99.90;;;;;;4962439;28;19926;-81
2022/01/09 05:03:29;;;;;;;;;;;1.30;99.90;;;;;;4976984;28;20649;-81
2022/01/09 05:05:56;;;;;;;;;;;1.30;99.90;;;;;;4965552;28;19922;-81
2022/01/09 05:08:23;;;;;;;;;;;1.30;99.90;;;;;;4961078;28;21591;-81
2022/01/09 05:10:50;;;;;;;;;;;1.30;99.90;;;;;;4960521;28;19922;-81
2022/01/09 05:13:17;;;;;;;;;;;1.30;99.90;;;;;;4965906;28;20016;-81
2022/01/09 05:15:44;;;;;;;;;;;1.30;99.90;;;;;;4966747;28;19922;-81
2022/01/09 05:18:15;;;;;;;;;;;1.40;99.90;;;;;;4965878;28;19954;-81
2022/01/09 05:20:42;;;;;;;;;;;1.40;99.90;;;;;;4965567;28;20287;-81
2022/01/09 05:23:09;;;;;;;;;;;1.40;99.90;;;;;;4967829;28;19985;-81
2022/01/09 05:25:36;;;;;;;;;;;1.40;99.90;;;;;;4972568;28;20451;-81
2022/01/09 05:28:03;;;;;;;;;;;1.40;99.90;;;;;;4963660;28;19923;-81
2022/01/09 05:30:30;;;;;;;;;;;1.50;99.90;;;;;;4966350;28;19936;-81
2022/01/09 05:32:57;;;;;;;;;;;1.50;99.90;;;;;;4964952;28;19926;-82
2022/01/09 05:35:25;;;;;;;;;;;1.60;99.90;;;;;;4967363;28;19922;-82
2022/01/09 05:37:53;;;;;;;;;;;1.60;99.90;;;;;;4964615;28;20345;-82
2022/01/09 05:40:20;;;;;;;;;;;1.60;99.90;;;;;;4976969;28;20372;-81
2022/01/09 05:42:47;;;;;;;;;;;1.60;99.90;;;;;;4963274;28;19929;-82
2022/01/09 05:45:17;;;;;;;;;;;1.60;99.90;;;;;;4966238;28;20292;-82
2022/01/09 05:47:54;;;;;;;;;;;1.70;99.90;;;;;;3842075;28;10019986;-81
2022/01/09 05:50:21;;;;;;;;;;;1.70;99.90;;;;;;2389290;28;10002020;-81
2022/01/09 05:52:48;;;;;;;;;;;1.70;99.90;;;;;;4961791;28;22191;-81
2022/01/09 05:55:15;;;;;;;;;;;1.70;99.90;;;;;;4981497;28;19976;-82
2022/01/09 05:57:41;;;;;;;;;;;1.70;99.90;;;;;;4966831;28;19952;-82
2022/01/09 06:00:08;;;;;;;;;;;1.80;99.90;;;;;;4966534;28;19933;-82
2022/01/09 06:02:44;;;;;;;;;;;1.80;99.90;;;;;;4964519;28;20008;-82
2022/01/09 06:05:11;;;;;;;;;;;1.80;99.90;;;;;;4967806;28;19926;-82
2022/01/09 06:07:39;;;;;;;;;;;1.80;99.90;;;;;;4965997;28;20024;-82
2022/01/09 06:10:06;;;;;;;;;;;1.80;99.90;;;;;;4967204;28;20344;-82
2022/01/09 06:12:33;;;;;;;;;;;1.80;99.90;;;;;;4964104;28;19929;-81
2022/01/09 06:15:00;;;;;;;;;;;1.80;99.90;;;;;;4964988;28;20024;-82
2022/01/09 06:17:27;;;;;;;;;;;1.80;99.90;;;;;;4965378;28;19953;-81
2022/01/09 06:19:54;;;;;;;;;;;1.80;99.90;;;;;;4978391;28;19961;-81
2022/01/09 06:22:21;;;;;;;;;;;1.80;99.90;;;;;;4965914;28;20517;-81
2022/01/09 06:24:50;;;;;;;;;;;1.80;99.90;;;;;;4945968;28;21477;-81
2022/01/09 06:27:17;;;;;;;;;;;1.80;99.90;;;;;;4966686;28;19944;-82
2022/01/09 06:29:44;;;;;;;;;;;1.90;99.90;;;;;;4964492;28;19997;-82
2022/01/09 06:32:11;;;;;;;;;;;1.90;99.90;;;;;;4984847;28;19922;-82
2022/01/09 06:34:38;;;;;;;;;;;1.90;99.90;;;;;;4965498;28;19922;-82
2022/01/09 06:37:05;;;;;;;;;;;1.90;99.90;;;;;;4965892;28;19922;-82
2022/01/09 06:39:32;;;;;;;;;;;1.90;99.90;;;;;;4972179;28;20402;-82
2022/01/09 06:41:59;;;;;;;;;;;1.90;99.90;;;;;;4966085;28;19931;-82
2022/01/09 06:44:26;;;;;;;;;;;1.90;99.90;;;;;;4981245;28;19926;-82
2022/01/09 06:46:53;;;;;;;;;;;1.90;99.90;;;;;;4977538;28;20347;-82
2022/01/09 06:49:20;;;;;;;;;;;1.90;99.90;;;;;;4964779;28;20536;-82
2022/01/09 06:51:47;;;;;;;;;;;1.90;99.90;;;;;;4975228;28;19930;-82
2022/01/09 06:54:13;;;;;;;;;;;2.00;99.90;;;;;;4958890;28;19934;-82
2022/01/09 06:56:41;;;;;;;;;;;2.00;99.90;;;;;;4980297;28;19985;-82
2022/01/09 06:59:08;;;;;;;;;;;2.00;99.90;;;;;;4969830;28;20352;-82
2022/01/09 07:01:35;;;;;;;;;;;2.00;99.90;;;;;;4970016;28;19933;-82
2022/01/09 07:04:02;;;;;;;;;;;2.00;99.90;;;;;;4981792;28;19930;-82
2022/01/09 07:06:29;;;;;;;;;;;2.00;99.90;;;;;;4989597;28;19965;-82
2022/01/09 07:08:56;;;;;;;;;;;2.00;99.90;;;;;;4968326;28;19922;-82
2022/01/09 07:11:23;;;;;;;;;;;2.00;99.90;;;;;;4969882;28;20536;-82
2022/01/09 07:13:50;;;;;;;;;;;2.00;99.90;;;;;;4957325;28;20428;-83
2022/01/09 07:16:16;;;;;;;;;;;2.00;99.90;;;;;;4941067;28;20026;-82
2022/01/09 07:18:43;;;;;;;;;;;2.00;99.90;;;;;;4965847;28;20464;-82
2022/01/09 07:21:10;;;;;;;;;;;2.00;99.90;;;;;;4963893;28;19926;-82
2022/01/09 07:23:37;;;;;;;;;;;2.00;99.90;;;;;;4974265;28;19926;-82
2022/01/09 07:26:04;;;;;;;;;;;2.00;99.90;;;;;;4969868;28;20603;-82
2022/01/09 07:28:31;;;;;;;;;;;2.00;99.90;;;;;;4980944;28;19987;-82
2022/01/09 07:30:58;;;;;;;;;;;2.00;99.90;;;;;;4982746;28;19925;-82
2022/01/09 07:33:25;;;;;;;;;;;2.00;99.90;;;;;;4970732;28;19985;-82
2022/01/09 07:35:52;;;;;;;;;;;2.00;99.90;;;;;;4970610;28;20375;-82
2022/01/09 07:38:19;;;;;;;;;;;2.00;99.90;;;;;;4990098;28;19968;-82
2022/01/09 07:40:47;;;;;;;;;;;2.00;99.90;;;;;;4981187;28;20263;-82
2022/01/09 07:43:14;;;;;;;;;;;2.00;99.90;;;;;;4968136;28;19926;-82
2022/01/09 07:45:41;;;;;;;;;;;2.10;99.90;;;;;;4968671;28;19933;-82
2022/01/09 07:48:08;;;;;;;;;;;2.00;99.90;;;;;;4975871;28;20574;-82
2022/01/09 07:50:43;;;;;;;;;;;2.00;99.90;;;;;;1574098;28;10022130;-82
2022/01/09 07:53:10;;;;;;;;;;;1.90;99.90;;;;;;3932194;28;10001452;-81
2022/01/09 07:55:37;;;;;;;;;;;2.00;99.90;;;;;;4950672;28;20305;-81
2022/01/09 07:58:04;;;;;;;;;;;1.90;99.90;;;;;;4947509;28;20398;-81
2022/01/09 08:00:31;;;;;;;;;;;2.00;99.90;;;;;;4948401;28;19922;-81
2022/01/09 08:02:58;;;;;;;;;;;2.00;99.90;;;;;;4949532;28;19930;-81
2022/01/09 08:05:25;;;;;;;;;;;2.00;99.90;;;;;;4962106;28;20373;-81
2022/01/09 08:07:52;;;;;;;;;;;2.00;99.90;;;;;;4950535;28;20412;-81
2022/01/09 08:10:18;;;;;;;;;;;1.90;99.90;;;;;;4948381;28;19923;-81
2022/01/09 08:12:45;;;;;;;;;;;1.90;99.90;;;;;;4965184;28;19940;-82
2022/01/09 08:15:12;;;;;;;;;;;1.90;99.90;;;;;;4965765;28;19957;-82
2022/01/09 08:17:42;;;;;;;;;;;1.90;99.90;;;;;;4958070;28;20396;-82
2022/01/09 08:20:09;;;;;;;;;;;1.90;99.90;;;;;;4962779;28;19948;-82
2022/01/09 08:22:36;;;;;;;;;;;1.90;99.90;;;;;;4975101;28;19925;-82
2022/01/09 08:25:05;;;;;;;;;;;1.90;99.90;;;;;;4982702;28;20301;-81
2022/01/09 08:27:32;;;;;;;;;;;2.00;99.90;;;;;;4966856;28;20033;-81
2022/01/09 08:29:59;;;;;;;;;;;1.90;99.90;;;;;;4981029;28;19922;-81
2022/01/09 08:32:26;;;;;;;;;;;2.00;99.90;;;;;;4966087;28;20332;-81
2022/01/09 08:34:53;;;;;;;;;;;2.00;99.90;;;;;;4965793;28;19926;-81
2022/01/09 08:37:21;;;;;;;;;;;2.00;99.90;;;;;;4972490;28;19922;-81
2022/01/09 08:39:48;;;;;;;;;;;2.00;99.90;;;;;;4980492;28;19929;-81
2022/01/09 08:42:15;;;;;;;;;;;2.00;99.90;;;;;;4966593;28;19922;-83
2022/01/09 08:44:42;;;;;;;;;;;2.00;99.90;;;;;;4966532;28;19926;-82
2022/01/09 08:47:09;;;;;;;;;;;2.00;99.90;;;;;;4970052;28;20000;-82
2022/01/09 08:49:42;;;;;;;;;;;2.00;99.90;;;;;;4979444;28;20335;-82
2022/01/09 08:52:09;;;;;;;;;;;2.00;99.90;;;;;;4968132;28;19969;-82
2022/01/09 08:54:36;;;;;;;;;;;2.10;99.90;;;;;;4967343;28;19930;-81
2022/01/09 08:57:03;;;;;;;;;;;2.10;99.90;;;;;;4968254;28;19929;-82
2022/01/09 08:59:30;;;;;;;;;;;2.10;99.90;;;;;;4981646;28;20315;-82
2022/01/09 09:01:57;;;;;;;;;;;2.20;99.90;;;;;;4967498;28;19922;-82
2022/01/09 09:04:24;;;;;;;;;;;2.20;99.90;;;;;;4967801;28;19922;-82
2022/01/09 09:06:51;;;;;;;;;;;2.10;99.90;;;;;;4980322;28;20411;-81
2022/01/09 09:09:18;;;;;;;;;;;2.10;99.90;;;;;;4964502;28;20037;-82
2022/01/09 09:11:45;;;;;;;;;;;2.10;99.90;;;;;;4965627;28;20379;-82
2022/01/09 09:14:12;;;;;;;;;;;2.00;99.90;;;;;;4964600;28;20253;-82
2022/01/09 09:16:39;;;;;;;;;;;2.00;99.90;;;;;;4961875;28;19957;-82
2022/01/09 09:19:06;;;;;;;;;;;1.90;99.90;;;;;;4966900;28;19926;-82
2022/01/09 09:21:32;;;;;;;;;;;1.90;99.90;;;;;;4966436;28;19957;-82
2022/01/09 09:23:59;;;;;;;;;;;1.90;99.90;;;;;;4968938;28;19953;-82
2022/01/09 09:26:26;;;;;;;;;;;1.90;99.90;;;;;;4966975;28;20013;-82
2022/01/09 09:28:53;;;;;;;;;;;1.90;99.90;;;;;;4977070;28;20027;-82
2022/01/09 09:31:20;;;;;;;;;;;1.90;99.90;;;;;;4977463;28;19938;-82
2022/01/09 09:33:47;;;;;;;;;;;1.90;99.90;;;;;;4975276;28;19929;-82
2022/01/09 09:36:14;;;;;;;;;;;1.80;99.90;;;;;;4965367;28;19956;-82
2022/01/09 09:38:40;;;;;;;;;;;1.80;99.90;;;;;;4962545;28;19925;-82
2022/01/09 09:41:07;;;;;;;;;;;1.80;99.90;;;;;;4964375;28;19961;-82
2022/01/09 09:43:34;;;;;;;;;;;1.80;99.90;;;;;;4964580;28;19922;-82
2022/01/09 09:46:02;;;;;;;;;;;1.80;99.90;;;;;;4983516;28;19929;-82
2022/01/09 09:48:33;;;;;;;;;;;1.80;99.90;;;;;;1399495;28;10022091;-81
2022/01/09 09:51:00;;;;;;;;;;;1.80;99.90;;;;;;3921643;28;10001079;-82
2022/01/09 09:53:27;;;;;;;;;;;1.80;99.90;;;;;;4944356;28;20560;-81
2022/01/09 09:55:53;;;;;;;;;;;1.80;99.90;;;;;;4949399;28;19930;-81
2022/01/09 09:58:22;;;;;;;;;;;1.80;99.90;;;;;;4945574;28;19980;-81
2022/01/09 10:00:52;;;;;;;;;;;1.80;99.90;;;;;;4945824;28;19944;-82
2022/01/09 10:03:32;;;;;;;;;;;1.80;99.90;;;;;;4959208;28;19930;-82
2022/01/09 10:06:00;;;;;;;;;;;1.70;99.90;;;;;;4947505;28;19956;-82
2022/01/09 10:08:35;;;;;;;;;;;1.80;99.90;;;;;;4948376;28;20009;-82
2022/01/09 10:11:12;;;;;;;;;;;1.80;99.90;;;;;;4964377;28;20323;-82
2022/01/09 10:13:39;;;;;;;;;;;1.80;99.90;;;;;;4979622;28;20363;-82
2022/01/09 10:16:08;;;;;;;;;;;1.70;99.90;;;;;;4966197;28;19964;-82
2022/01/09 10:18:44;;;;;;;;;;;1.80;99.90;;;;;;4967126;28;19929;-82
2022/01/09 10:21:12;;;;;;;;;;;1.70;99.90;;;;;;4971869;28;20349;-82
2022/01/09 10:23:58;;;;;;;;;;;1.70;99.90;;;;;;4964859;28;19926;-82
2022/01/09 10:26:25;;;;;;;;;;;1.80;99.90;;;;;;4978035;28;20292;-82
2022/01/09 10:28:52;;;;;;;;;;;1.80;99.90;;;;;;4962934;28;20001;-82
2022/01/09 10:31:19;;;;;;;;;;;1.80;99.90;;;;;;4965844;28;20265;-82
2022/01/09 10:34:01;;;;;;;;;;;1.80;99.90;;;;;;4970600;28;20419;-82
2022/01/09 10:36:31;;;;;;;;;;;1.80;99.90;;;;;;4984590;28;19948;-82
2022/01/09 10:39:02;;;;;;;;;;;1.80;99.90;;;;;;4963719;28;19953;-82
2022/01/09 10:41:43;;;;;;;;;;;1.70;99.90;;;;;;4971077;28;20271;-82
2022/01/09 10:44:14;;;;;;;;;;;1.70;99.90;;;;;;4965160;28;19922;-82
2022/01/09 10:46:51;;;;;;;;;;;1.70;99.90;;;;;;4973452;28;19921;-82
2022/01/09 10:49:18;;;;;;;;;;;1.70;99.90;;;;;;4967902;28;19930;-82
2022/01/09 10:51:45;;;;;;;;;;;1.70;99.90;;;;;;4964939;28;19922;-82
2022/01/09 10:54:26;;;;;;;;;;;1.70;99.90;;;;;;4982285;28;19930;-82
2022/01/09 10:57:13;;;;;;;;;;;1.70;99.90;;;;;;4961839;28;19929;-82
2022/01/09 10:59:40;;;;;;;;;;;1.70;99.90;;;;;;4985316;28;20044;-82
2022/01/09 11:02:07;;;;;;;;;;;1.60;99.90;;;;;;4985018;28;19922;-82
2022/01/09 11:04:34;;;;;;;;;;;1.60;99.90;;;;;;4948843;28;19926;-82
2022/01/09 11:07:01;;;;;;;;;;;1.60;99.90;;;;;;4952861;28;20009;-83
2022/01/09 11:09:30;;;;;;;;;;;1.60;99.90;;;;;;4981855;28;20347;-83
2022/01/09 11:11:57;;;;;;;;;;;1.60;99.90;;;;;;4947580;28;19949;-83
2022/01/09 11:14:26;;;;;;;;;;;1.60;99.90;;;;;;4947902;28;19926;-83
2022/01/09 11:16:54;;;;;;;;;;;1.60;99.90;;;;;;4948998;28;19926;-83
2022/01/09 11:19:22;;;;;;;;;;;1.60;99.90;;;;;;4948910;28;19959;-83
2022/01/09 11:21:50;;;;;;;;;;;1.60;99.90;;;;;;4949851;28;20652;-83
2022/01/09 11:24:29;;;;;;;;;;;1.60;99.90;;;;;;4960422;28;19930;-83
2022/01/09 11:27:05;;;;;;;;;;;1.60;99.90;;;;;;4979352;28;19930;-83
2022/01/09 11:29:51;;;;;;;;;;;1.60;99.90;;;;;;4962829;28;20287;-83
2022/01/09 11:32:39;;;;;;;;;;;1.60;99.90;;;;;;4968551;28;19973;-83
2022/01/09 11:35:05;;;;;;;;;;;1.60;99.90;;;;;;4967825;28;19969;-83
2022/01/09 11:37:36;;;;;;;;;;;1.60;99.90;;;;;;4983828;28;20399;-83
2022/01/09 11:40:04;;;;;;;;;;;1.60;99.90;;;;;;4968341;28;19999;-83
2022/01/09 11:42:31;;;;;;;;;;;1.60;99.90;;;;;;4977890;28;19969;-83
2022/01/09 11:44:58;;;;;;;;;;;1.70;99.90;;;;;;4968684;28;19933;-83
2022/01/09 11:47:25;;;;;;;;;;;1.60;99.90;;;;;;4887470;28;19932;-83
2022/01/09 11:49:52;;;;;;;;;;;1.60;99.90;;;;;;1015997;28;10001976;-83
2022/01/09 11:52:19;;;;;;;;;;;1.60;99.90;;;;;;4969831;28;20328;-84
2022/01/09 11:54:46;;;;;;;;;;;1.70;99.90;;;;;;4966566;28;19946;-84
2022/01/09 11:57:18;;;;;;;;;;;1.70;99.90;;;;;;4969718;28;19936;-83
2022/01/09 11:59:48;;;;;;;;;;;1.70;99.90;;;;;;4983095;28;19930;-83
2022/01/09 12:02:14;;;;;;;;;;;1.70;99.90;;;;;;4970092;28;19922;-83
2022/01/09 12:04:41;;;;;;;;;;;1.70;99.90;;;;;;4965528;28;20183;-83
2022/01/09 12:07:11;;;;;;;;;;;1.70;99.90;;;;;;4968677;28;19926;-83
2022/01/09 12:09:37;;;;;;;;;;;1.70;99.90;;;;;;4966389;28;19922;-83
2022/01/09 12:12:14;;;;;;;;;;;1.60;99.90;;;;;;4969465;28;19957;-83
2022/01/09 12:14:44;;;;;;;;;;;1.70;99.90;;;;;;4948142;28;20326;-83
2022/01/09 12:17:23;;;;;;;;;;;1.70;99.90;;;;;;4968445;28;19922;-83
2022/01/09 12:19:54;;;;;;;;;;;1.70;99.90;;;;;;4966017;28;19925;-83
2022/01/09 12:22:40;;;;;;;;;;;1.70;99.90;;;;;;4965944;28;19922;-83
2022/01/09 12:25:08;;;;;;;;;;;1.70;99.90;;;;;;4961441;28;19931;-82
2022/01/09 12:27:35;;;;;;;;;;;1.70;99.90;;;;;;4964348;28;20137;-83
2022/01/09 12:30:06;;;;;;;;;;;1.60;99.90;;;;;;4951340;28;19922;-83
2022/01/09 12:32:51;;;;;;;;;;;1.60;99.90;;;;;;4972270;28;19925;-83
2022/01/09 12:35:19;;;;;;;;;;;1.60;99.90;;;;;;4988576;28;19926;-83
2022/01/09 12:37:47;;;;;;;;;;;1.60;99.90;;;;;;4984232;28;19957;-83
2022/01/09 12:40:17;;;;;;;;;;;1.60;99.90;;;;;;4971698;28;19938;-83
2022/01/09 12:42:48;;;;;;;;;;;1.60;99.90;;;;;;4964872;28;19956;-83
2022/01/09 12:45:26;;;;;;;;;;;1.60;99.90;;;;;;4968715;28;19927;-83
2022/01/09 12:47:54;;;;;;;;;;;1.60;99.90;;;;;;4981989;28;19930;-83
2022/01/09 12:50:31;;;;;;;;;;;1.60;99.90;;;;;;4969497;28;20017;-83
2022/01/09 12:53:17;;;;;;;;;;;1.50;99.90;;;;;;4964857;28;20713;-83
2022/01/09 12:55:53;;;;;;;;;;;1.50;99.90;;;;;;4973931;28;19925;-83
2022/01/09 12:58:24;;;;;;;;;;;1.50;99.90;;;;;;4980561;28;19926;-83
2022/01/09 13:00:52;;;;;;;;;;;1.60;99.90;;;;;;4966446;28;20009;-83
2022/01/09 13:03:20;;;;;;;;;;;1.60;99.90;;;;;;4966713;28;19921;-83
2022/01/09 13:05:55;;;;;;;;;;;1.60;99.90;;;;;;4969354;28;19992;-83
2022/01/09 13:08:22;;;;;;;;;;;1.60;99.90;;;;;;4967343;28;19956;-83
2022/01/09 13:10:59;;;;;;;;;;;1.50;99.90;;;;;;4971567;28;19929;-83
2022/01/09 13:13:27;;;;;;;;;;;1.50;99.90;;;;;;4966530;28;19929;-83
2022/01/09 13:15:54;;;;;;;;;;;1.50;99.90;;;;;;4972842;28;19937;-83
2022/01/09 13:18:37;;;;;;;;;;;1.50;99.90;;;;;;4981879;28;19929;-83
2022/01/09 13:21:24;;;;;;;;;;;1.40;99.90;;;;;;4973517;28;19930;-83
2022/01/09 13:23:50;;;;;;;;;;;1.40;99.90;;;;;;4980815;28;19930;-83
2022/01/09 13:26:17;;;;;;;;;;;1.40;99.90;;;;;;4971760;28;19930;-83
2022/01/09 13:28:45;;;;;;;;;;;1.40;99.90;;;;;;4968753;28;19944;-83
2022/01/09 13:31:12;;;;;;;;;;;1.40;99.90;;;;;;4979095;28;19979;-83
2022/01/09 13:33:53;;;;;;;;;;;1.30;99.90;;;;;;4967110;28;19929;-83
2022/01/09 13:36:30;;;;;;;;;;;1.30;99.90;;;;;;4967147;28;19926;-83
2022/01/09 13:38:59;;;;;;;;;;;1.30;99.90;;;;;;4963758;28;19933;-83
2022/01/09 13:41:30;;;;;;;;;;;1.30;99.90;;;;;;4964281;28;20016;-83
2022/01/09 13:43:57;;;;;;;;;;;1.30;99.90;;;;;;4967416;28;20505;-83
2022/01/09 13:46:24;;;;;;;;;;;1.30;99.90;;;;;;4965559;28;19933;-83
2022/01/09 13:49:14;;;;;;;;;;;1.30;99.90;;;;;;1746894;28;10022003;-83
2022/01/09 13:51:41;;;;;;;;;;;1.30;99.90;;;;;;4615393;28;10000991;-83
2022/01/09 13:54:10;;;;;;;;;;;1.30;99.90;;;;;;4942807;28;20457;-83
2022/01/09 13:56:43;;;;;;;;;;;1.30;99.90;;;;;;4971198;28;19922;-83
2022/01/09 13:59:10;;;;;;;;;;;1.30;99.90;;;;;;4964510;28;20086;-83
2022/01/09 14:01:49;;;;;;;;;;;1.20;99.90;;;;;;4982742;28;19930;-83
2022/01/09 14:04:18;;;;;;;;;;;1.20;99.90;;;;;;4967510;28;19922;-83
2022/01/09 14:06:59;;;;;;;;;;;1.30;99.90;;;;;;4982067;28;19926;-83
2022/01/09 14:09:31;;;;;;;;;;;1.30;99.90;;;;;;4970014;28;20248;-83
2022/01/09 14:12:08;;;;;;;;;;;1.30;99.90;;;;;;4970318;28;19922;-83
2022/01/09 14:14:37;;;;;;;;;;;1.30;99.90;;;;;;4970342;28;20321;-83
2022/01/09 14:17:22;;;;;;;;;;;1.30;99.90;;;;;;4966558;28;19922;-83
2022/01/09 14:19:50;;;;;;;;;;;1.30;99.90;;;;;;4979674;28;19930;-83
2022/01/09 14:22:17;;;;;;;;;;;1.20;99.90;;;;;;4967269;28;20021;-83
2022/01/09 14:25:01;;;;;;;;;;;1.30;99.90;;;;;;4979433;28;19922;-83
2022/01/09 14:27:30;;;;;;;;;;;1.30;99.90;;;;;;4968413;28;19926;-83
2022/01/09 14:29:57;;;;;;;;;;;1.30;99.90;;;;;;4984408;28;19953;-83
2022/01/09 14:32:24;;;;;;;;;;;1.30;99.90;;;;;;4986956;28;19934;-83
2022/01/09 14:34:52;;;;;;;;;;;1.20;99.90;;;;;;4965960;28;19928;-83
2022/01/09 14:37:19;;;;;;;;;;;1.20;99.90;;;;;;4969534;28;19985;-83
2022/01/09 14:39:45;;;;;;;;;;;1.20;99.90;;;;;;4968674;28;20398;-83